Time;durP1;ratioP1;P1;durP2;ratioP2;P2;SDS_P1;SDS_P2;PMS_P1;PMS_P2;Temp;Humidity;BMP_temperature;BMP_pressure;BME280_temperature;BME280_humidity;BME280_pressure;Samples;Min_cycle;Max_cycle;Signal;HPM_P1;HPM_P2
2023/07/09 00:08:28;;;;;;;9.43;6.63;;;;;17.10;96792.00;;;;8363400;28;20193;-78
2023/07/09 00:12:41;;;;;;;13.65;7.32;;;;;17.00;96789.00;;;;8363118;28;20263;-80
2023/07/09 00:16:48;;;;;;;8.65;6.25;;;;;16.90;96796.00;;;;8365556;28;20228;-79
2023/07/09 00:20:51;;;;;;;9.55;6.88;;;;;16.90;96796.00;;;;8363360;28;20185;-78
2023/07/09 00:24:56;;;;;;;11.50;6.63;;;;;16.80;96799.00;;;;8364078;28;20638;-78
2023/07/09 00:29:08;;;;;;;12.35;6.47;;;;;16.70;96797.00;;;;8366499;28;20446;-76
2023/07/09 00:33:22;;;;;;;10.80;7.00;;;;;16.60;96795.00;;;;8367730;28;20287;-79
2023/07/09 00:37:26;;;;;;;10.25;6.60;;;;;16.60;96794.00;;;;8367983;28;20320;-79
2023/07/09 00:41:38;;;;;;;9.50;6.93;;;;;16.60;96800.00;;;;8367032;28;20211;-77
2023/07/09 00:46:12;;;;;;;9.05;6.60;;;;;16.50;96798.00;;;;8366095;28;20770;-80
2023/07/09 00:50:28;;;;;;;11.20;6.72;;;;;16.40;96807.00;;;;8368341;28;20610;-78
2023/07/09 00:54:36;;;;;;;12.32;7.07;;;;;16.40;96812.00;;;;8366647;28;20204;-78
2023/07/09 00:58:40;;;;;;;11.95;6.88;;;;;16.30;96816.00;;;;8366440;28;20228;-79
2023/07/09 01:02:48;;;;;;;10.52;6.72;;;;;16.20;96817.00;;;;8366091;28;20311;-79
2023/07/09 01:06:55;;;;;;;11.95;6.35;;;;;16.20;96812.00;;;;8365187;28;20200;-79
2023/07/09 01:11:02;;;;;;;11.23;6.70;;;;;16.30;96815.00;;;;8365361;28;20288;-78
2023/07/09 01:15:08;;;;;;;10.43;6.55;;;;;16.30;96812.00;;;;8366195;28;20622;-78
2023/07/09 01:19:13;;;;;;;16.63;6.80;;;;;16.30;96807.00;;;;8365693;28;20233;-78
2023/07/09 01:23:23;;;;;;;10.13;6.70;;;;;16.20;96808.00;;;;8366153;28;20250;-78
2023/07/09 01:27:37;;;;;;;10.20;6.63;;;;;16.20;96810.00;;;;8366093;28;20300;-79
2023/07/09 01:31:56;;;;;;;10.02;5.97;;;;;16.10;96814.00;;;;8365355;28;20247;-77
2023/07/09 01:36:02;;;;;;;10.02;6.38;;;;;16.00;96812.00;;;;8365409;28;20239;-79
2023/07/09 01:40:33;;;;;;;9.27;6.78;;;;;16.00;96809.00;;;;8365274;28;20184;-79
2023/07/09 01:44:45;;;;;;;8.32;6.30;;;;;15.90;96802.00;;;;8364390;28;20254;-76
2023/07/09 01:49:01;;;;;;;9.13;5.97;;;;;15.80;96801.00;;;;8365697;28;20281;-77
2023/07/09 01:53:04;;;;;;;10.80;6.90;;;;;15.80;96800.00;;;;8365721;28;20288;-78
2023/07/09 01:57:33;;;;;;;9.13;6.25;;;;;15.70;96799.00;;;;8364222;28;20224;-77
2023/07/09 02:01:49;;;;;;;9.05;6.57;;;;;15.80;96800.00;;;;8364548;28;20208;-77
2023/07/09 02:05:57;;;;;;;10.68;6.85;;;;;15.80;96798.00;;;;8363934;28;20213;-76
2023/07/09 02:10:25;;;;;;;8.90;6.57;;;;;15.60;96800.00;;;;8363572;28;20283;-75
2023/07/09 02:14:32;;;;;;;8.10;6.15;;;;;15.60;96792.00;;;;8363609;28;20240;-77
2023/07/09 02:18:40;;;;;;;10.38;6.80;;;;;15.60;96804.00;;;;8362434;28;20558;-77
2023/07/09 02:22:54;;;;;;;11.80;6.20;;;;;15.50;96804.00;;;;8362611;28;20288;-75
2023/07/09 02:27:06;;;;;;;10.70;6.85;;;;;15.50;96809.00;;;;8359678;28;20279;-77
2023/07/09 02:31:17;;;;;;;8.60;6.57;;;;;15.50;96806.00;;;;8363345;28;20197;-77
2023/07/09 02:35:20;;;;;;;9.52;6.32;;;;;15.50;96813.00;;;;8362233;28;20512;-78
2023/07/09 02:39:33;;;;;;;9.75;6.53;;;;;15.50;96815.00;;;;8363364;28;20228;-76
2023/07/09 02:43:54;;;;;;;9.75;6.78;;;;;15.50;96825.00;;;;8362969;28;20295;-77
2023/07/09 02:48:02;;;;;;;14.35;7.20;;;;;15.50;96822.00;;;;8360657;28;20201;-78
2023/07/09 02:52:08;;;;;;;14.43;7.25;;;;;15.40;96820.00;;;;8362637;28;20199;-79
2023/07/09 02:56:11;;;;;;;14.63;7.72;;;;;15.30;96829.00;;;;8362198;28;20215;-79
2023/07/09 03:00:32;;;;;;;12.50;7.38;;;;;15.20;96839.00;;;;8358619;28;20329;-77
2023/07/09 03:04:40;;;;;;;14.73;7.22;;;;;15.20;96841.00;;;;8271116;22;20344;-76
2023/07/09 03:08:43;;;;;;;11.30;7.28;;;;;15.20;96839.00;;;;8214028;28;20219;-77
2023/07/09 03:13:26;;;;;;;10.38;6.80;;;;;15.30;96841.00;;;;8220408;28;20210;-78
2023/07/09 03:17:32;;;;;;;11.10;7.63;;;;;15.30;96844.00;;;;8210876;28;20269;-77
2023/07/09 03:21:38;;;;;;;10.60;6.78;;;;;15.30;96851.00;;;;8218912;28;20300;-77
2023/07/09 03:25:42;;;;;;;10.68;7.10;;;;;15.40;96854.00;;;;8227752;28;20210;-76
2023/07/09 03:29:45;;;;;;;10.52;6.82;;;;;15.40;96857.00;;;;8224002;28;20572;-77
2023/07/09 03:33:54;;;;;;;10.52;6.93;;;;;15.40;96858.00;;;;8225267;28;20419;-77
2023/07/09 03:38:00;;;;;;;9.65;6.95;;;;;15.40;96861.00;;;;8223402;28;20223;-76
2023/07/09 03:42:04;;;;;;;10.85;7.50;;;;;15.50;96858.00;;;;8225545;28;20246;-77
2023/07/09 03:46:07;;;;;;;10.60;7.63;;;;;15.60;96858.00;;;;8225494;28;20539;-73
2023/07/09 03:50:11;;;;;;;11.43;6.85;;;;;15.70;96850.00;;;;8233603;28;20346;-77
2023/07/09 03:54:25;;;;;;;9.50;6.50;;;;;15.80;96862.00;;;;8224350;28;20215;-72
2023/07/09 03:58:34;;;;;;;9.80;7.15;;;;;15.90;96865.00;;;;8224395;28;20632;-76
2023/07/09 04:02:43;;;;;;;14.77;7.70;;;;;16.10;96869.00;;;;8210505;28;20600;-79
2023/07/09 04:06:47;;;;;;;12.63;7.03;;;;;16.20;96875.00;;;;8214599;28;21016;-78
2023/07/09 04:11:01;;;;;;;11.07;7.45;;;;;16.40;96876.00;;;;8218189;28;20242;-78
2023/07/09 04:15:07;;;;;;;13.93;7.72;;;;;16.50;96878.00;;;;8207085;28;20291;-78
2023/07/09 04:19:11;;;;;;;12.60;7.13;;;;;16.70;96876.00;;;;8208622;28;20937;-78
2023/07/09 04:23:14;;;;;;;12.18;7.70;;;;;16.90;96870.00;;;;8209021;28;20219;-74
2023/07/09 04:27:19;;;;;;;10.88;7.35;;;;;17.20;96872.00;;;;8217532;28;20206;-74
2023/07/09 04:31:23;;;;;;;13.25;7.57;;;;;17.60;96877.00;;;;8203810;28;20235;-76
2023/07/09 04:35:26;;;;;;;10.63;6.90;;;;;18.00;96872.00;;;;8222880;28;20207;-74
2023/07/09 04:39:31;;;;;;;12.93;7.70;;;;;18.30;96874.00;;;;8218779;28;20315;-74
2023/07/09 04:43:37;;;;;;;9.45;6.55;;;;;18.60;96876.00;;;;8201586;28;20204;-74
2023/07/09 04:47:42;;;;;;;9.73;6.95;;;;;18.80;96875.00;;;;8209957;28;20245;-75
2023/07/09 04:51:45;;;;;;;10.65;7.38;;;;;19.10;96878.00;;;;8220299;28;20204;-74
2023/07/09 04:55:49;;;;;;;9.70;6.95;;;;;19.50;96882.00;;;;8218150;28;20604;-75
2023/07/09 04:59:54;;;;;;;15.13;7.63;;;;;19.90;96890.00;;;;8213097;28;20262;-75
2023/07/09 05:03:58;;;;;;;15.32;7.28;;;;;20.10;96886.00;;;;8199338;28;20246;-75
2023/07/09 05:08:03;;;;;;;13.15;7.97;;;;;20.20;96882.00;;;;8209648;28;20203;-75
2023/07/09 05:12:10;;;;;;;13.10;8.07;;;;;20.50;96891.00;;;;8219860;28;20227;-76
2023/07/09 05:16:16;;;;;;;10.73;7.55;;;;;20.70;96892.00;;;;8221519;28;20294;-75
2023/07/09 05:20:21;;;;;;;13.32;7.97;;;;;20.90;96890.00;;;;8213079;28;20246;-74
2023/07/09 05:24:26;;;;;;;9.73;7.35;;;;;21.20;96898.00;;;;8211590;28;20219;-71
2023/07/09 05:28:34;;;;;;;11.98;7.70;;;;;21.40;96901.00;;;;8213282;28;20251;-71
2023/07/09 05:32:40;;;;;;;13.63;7.85;;;;;21.50;96899.00;;;;8215753;28;20235;-71
2023/07/09 05:36:43;;;;;;;12.35;7.55;;;;;21.60;96908.00;;;;8212482;28;20204;-72
2023/07/09 05:40:47;;;;;;;10.77;7.85;;;;;21.80;96904.00;;;;8203876;28;20327;-72
2023/07/09 05:44:52;;;;;;;10.57;7.82;;;;;22.10;96910.00;;;;8212413;28;20223;-70
2023/07/09 05:48:57;;;;;;;10.73;7.70;;;;;22.50;96914.00;;;;8208459;28;20295;-71
2023/07/09 05:53:03;;;;;;;11.98;7.63;;;;;22.90;96918.00;;;;8211414;28;20235;-70
2023/07/09 05:57:07;;;;;;;15.10;7.18;;;;;23.40;96923.00;;;;8213302;28;20286;-70
2023/07/09 06:01:10;;;;;;;13.13;7.32;;;;;24.20;96922.00;;;;8212608;28;20258;-68
2023/07/09 06:05:15;;;;;;;12.07;7.63;;;;;24.90;96918.00;;;;8217736;28;20214;-69
2023/07/09 06:09:19;;;;;;;12.70;8.02;;;;;25.50;96919.00;;;;8195280;28;20243;-71
2023/07/09 06:13:22;;;;;;;10.63;7.68;;;;;26.00;96915.00;;;;8197449;28;20219;-69
2023/07/09 06:17:25;;;;;;;18.27;7.63;;;;;26.30;96919.00;;;;8211820;28;20231;-69
2023/07/09 06:21:31;;;;;;;10.82;7.35;;;;;26.70;96925.00;;;;8214086;28;20638;-70
2023/07/09 06:25:34;;;;;;;12.05;7.82;;;;;27.00;96920.00;;;;8215931;28;20203;-71
2023/07/09 06:29:40;;;;;;;9.65;7.53;;;;;27.30;96919.00;;;;8220803;28;20207;-70
2023/07/09 06:33:44;;;;;;;15.52;7.50;;;;;28.00;96929.00;;;;8212878;28;20199;-70
2023/07/09 06:37:48;;;;;;;12.65;6.95;;;;;28.70;96939.00;;;;8212103;28;20924;-69
2023/07/09 06:41:55;;;;;;;11.77;7.25;;;;;29.10;96936.00;;;;8217360;28;20315;-71
2023/07/09 06:46:04;;;;;;;9.25;7.30;;;;;29.60;96940.00;;;;8211060;28;20612;-71
2023/07/09 06:50:15;;;;;;;13.77;7.57;;;;;30.10;96942.00;;;;8219648;28;20203;-70
2023/07/09 06:54:21;;;;;;;14.18;7.22;;;;;30.50;96950.00;;;;8208673;28;20242;-71
2023/07/09 06:58:27;;;;;;;8.35;6.22;;;;;30.80;96948.00;;;;8215327;28;20227;-72
2023/07/09 07:02:37;;;;;;;7.15;6.22;;;;;31.20;96953.00;;;;8211464;28;20275;-76
2023/07/09 07:06:40;;;;;;;10.68;6.68;;;;;31.50;96953.00;;;;8217076;28;20207;-75
2023/07/09 07:10:50;;;;;;;13.80;7.00;;;;;31.90;96951.00;;;;8206489;28;20204;-77
2023/07/09 07:14:56;;;;;;;8.18;6.18;;;;;32.30;96957.00;;;;8215559;28;20597;-73
2023/07/09 07:19:02;;;;;;;7.28;6.13;;;;;32.80;96953.00;;;;8215880;28;20231;-74
2023/07/09 07:23:05;;;;;;;11.10;6.32;;;;;33.20;96953.00;;;;8212461;28;20230;-75
2023/07/09 07:27:12;;;;;;;12.00;6.40;;;;;33.50;96949.00;;;;8210868;28;20204;-75
2023/07/09 07:31:15;;;;;;;7.03;6.18;;;;;33.70;96941.00;;;;8212167;28;20207;-76
2023/07/09 07:35:21;;;;;;;8.68;6.05;;;;;34.00;96949.00;;;;8208685;28;20881;-75
2023/07/09 07:39:24;;;;;;;9.88;6.50;;;;;34.20;96948.00;;;;8209482;28;20628;-75
2023/07/09 07:43:36;;;;;;;7.85;5.95;;;;;34.60;96946.00;;;;8197863;28;20218;-75
2023/07/09 07:47:46;;;;;;;8.10;5.75;;;;;35.10;96947.00;;;;8208323;28;20223;-75
2023/07/09 07:51:49;;;;;;;8.10;5.85;;;;;35.40;96948.00;;;;8216874;28;20200;-75
2023/07/09 07:55:55;;;;;;;9.90;6.95;;;;;35.60;96948.00;;;;8206746;28;20218;-75
2023/07/09 08:00:00;;;;;;;8.20;5.80;;;;;35.90;96956.00;;;;8209621;28;20239;-75
2023/07/09 08:04:06;;;;;;;6.93;5.63;;;;;36.30;96948.00;;;;8211225;28;20235;-76
2023/07/09 08:08:10;;;;;;;8.63;6.22;;;;;36.70;96947.00;;;;8207111;28;20212;-77
2023/07/09 08:12:15;;;;;;;7.25;5.95;;;;;37.00;96941.00;;;;8211753;28;20677;-76
2023/07/09 08:16:20;;;;;;;8.40;6.03;;;;;37.30;96944.00;;;;8215336;28;20219;-75
2023/07/09 08:20:24;;;;;;;7.82;5.25;;;;;37.60;96950.00;;;;8214968;28;20743;-75
2023/07/09 08:24:29;;;;;;;7.20;5.60;;;;;37.70;96951.00;;;;8220289;28;20679;-76
2023/07/09 08:28:36;;;;;;;9.50;5.20;;;;;38.00;96943.00;;;;8209337;28;20203;-74
2023/07/09 08:32:40;;;;;;;6.97;5.47;;;;;38.20;96940.00;;;;8215256;28;20675;-76
2023/07/09 08:36:47;;;;;;;8.75;5.55;;;;;38.50;96937.00;;;;8218370;28;20732;-76
2023/07/09 08:41:18;;;;;;;8.25;5.32;;;;;38.80;96941.00;;;;8206657;28;20223;-76
2023/07/09 08:45:36;;;;;;;5.90;5.25;;;;;39.20;96950.00;;;;8216768;28;20238;-75
2023/07/09 08:49:45;;;;;;;6.40;5.47;;;;;39.50;96940.00;;;;8210341;28;20236;-77
2023/07/09 08:53:52;;;;;;;6.82;5.47;;;;;39.40;96938.00;;;;8220686;28;20572;-77
2023/07/09 08:57:59;;;;;;;7.15;5.30;;;;;39.80;96944.00;;;;8216600;28;20208;-77
2023/07/09 09:02:06;;;;;;;7.85;5.50;;;;;40.00;96935.00;;;;8205999;28;20235;-77
2023/07/09 09:06:13;;;;;;;8.75;5.13;;;;;40.10;96939.00;;;;8216805;28;20938;-76
2023/07/09 09:10:23;;;;;;;6.53;4.97;;;;;40.40;96945.00;;;;8211677;28;20235;-79
2023/07/09 09:14:33;;;;;;;5.95;4.88;;;;;40.60;96944.00;;;;8207764;28;20327;-77
2023/07/09 09:18:41;;;;;;;5.90;4.40;;;;;40.70;96948.00;;;;8208426;28;20210;-76
2023/07/09 09:22:50;;;;;;;8.48;5.20;;;;;41.00;96948.00;;;;8215260;28;20305;-76
2023/07/09 09:26:56;;;;;;;6.50;4.60;;;;;41.50;96945.00;;;;8206400;28;20235;-78
2023/07/09 09:31:00;;;;;;;11.95;4.82;;;;;42.00;96943.00;;;;8213108;28;20215;-75
2023/07/09 09:35:16;;;;;;;14.75;5.03;;;;;42.00;96940.00;;;;8209705;28;20204;-74
2023/07/09 09:39:21;;;;;;;7.22;4.50;;;;;42.00;96936.00;;;;8219502;28;20317;-75
2023/07/09 09:43:36;;;;;;;5.40;4.43;;;;;42.00;96937.00;;;;8209866;28;20220;-75
2023/07/09 09:47:41;;;;;;;8.27;5.20;;;;;41.90;96950.00;;;;8210761;28;20290;-75
2023/07/09 09:51:47;;;;;;;9.90;5.47;;;;;42.10;96944.00;;;;8221426;28;20207;-75
2023/07/09 09:55:57;;;;;;;7.38;5.05;;;;;42.40;96950.00;;;;8213531;28;20235;-76
2023/07/09 10:00:06;;;;;;;5.63;5.07;;;;;42.10;96946.00;;;;8206644;28;20693;-74
2023/07/09 10:04:15;;;;;;;7.38;4.70;;;;;41.70;96942.00;;;;8212964;28;20239;-77
2023/07/09 10:08:32;;;;;;;6.82;4.50;;;;;41.90;96940.00;;;;8218802;28;20231;-76
2023/07/09 10:12:45;;;;;;;5.93;4.35;;;;;42.20;96938.00;;;;8208205;28;20296;-78
2023/07/09 10:16:57;;;;;;;5.53;4.40;;;;;42.70;96944.00;;;;8206530;28;20638;-76
2023/07/09 10:21:14;;;;;;;4.82;4.35;;;;;43.10;96944.00;;;;8205622;28;20337;-74
2023/07/09 10:25:34;;;;;;;6.05;4.30;;;;;43.50;96939.00;;;;8196403;28;20291;-75
2023/07/09 10:30:01;;;;;;;7.28;5.93;;;;;43.60;96937.00;;;;8211864;28;20200;-72
2023/07/09 10:34:35;;;;;;;5.95;4.13;;;;;43.30;96927.00;;;;8217320;28;20204;-77
2023/07/09 10:38:50;;;;;;;22.58;17.85;;;;;43.40;96932.00;;;;8215304;28;20696;-72
2023/07/09 10:42:59;;;;;;;10.50;7.40;;;;;43.90;96925.00;;;;8205421;28;20342;-76
2023/07/09 10:47:11;;;;;;;6.30;5.70;;;;;43.70;96923.00;;;;8196071;28;20288;-74
2023/07/09 10:51:22;;;;;;;6.65;4.43;;;;;44.00;96935.00;;;;8203613;28;20258;-74
2023/07/09 10:55:31;;;;;;;7.07;4.28;;;;;44.30;96924.00;;;;8194871;28;20207;-74
2023/07/09 10:59:40;;;;;;;5.82;4.18;;;;;44.40;96920.00;;;;8194758;28;20211;-74
2023/07/09 11:03:59;;;;;;;4.50;4.07;;;;;44.50;96923.00;;;;8207295;28;20230;-73
2023/07/09 11:08:06;;;;;;;6.20;3.85;;;;;44.40;96925.00;;;;8209891;28;20691;-74
2023/07/09 11:12:14;;;;;;;4.63;4.05;;;;;44.70;96915.00;;;;8211893;28;20293;-74
2023/07/09 11:16:26;;;;;;;6.65;3.72;;;;;44.90;96911.00;;;;8183483;28;20210;-75
2023/07/09 11:20:37;;;;;;;4.85;4.25;;;;;45.30;96911.00;;;;8203871;28;20226;-77
2023/07/09 11:24:50;;;;;;;4.75;4.22;;;;;45.20;96908.00;;;;8210808;28;20290;-75
2023/07/09 11:28:55;;;;;;;7.63;4.60;;;;;45.40;96902.00;;;;8209389;28;20222;-73
2023/07/09 11:33:01;;;;;;;6.43;4.38;;;;;45.60;96909.00;;;;8211454;28;20234;-76
2023/07/09 11:37:27;;;;;;;5.70;4.10;;;;;45.00;96910.00;;;;8214386;28;20199;-75
2023/07/09 11:41:40;;;;;;;4.90;4.00;;;;;44.00;96900.00;;;;8219041;28;20302;-72
2023/07/09 11:45:46;;;;;;;9.82;3.80;;;;;43.80;96901.00;;;;8218992;28;20787;-70
2023/07/09 11:49:58;;;;;;;4.70;4.18;;;;;43.10;96899.00;;;;8214563;28;20195;-71
2023/07/09 11:54:03;;;;;;;6.10;4.60;;;;;42.70;96890.00;;;;8211189;28;20428;-70
2023/07/09 11:58:06;;;;;;;4.78;3.67;;;;;42.20;96887.00;;;;8208230;28;20296;-75
2023/07/09 12:02:18;;;;;;;5.15;4.32;;;;;41.70;96882.00;;;;8218717;28;20769;-75
2023/07/09 12:06:28;;;;;;;5.22;4.15;;;;;42.20;96872.00;;;;8209423;28;20303;-72
2023/07/09 12:10:36;;;;;;;7.38;4.45;;;;;43.30;96869.00;;;;8213525;28;20298;-72
2023/07/09 12:14:42;;;;;;;5.15;4.65;;;;;43.50;96887.00;;;;8213736;28;20195;-72
2023/07/09 12:18:46;;;;;;;5.97;4.20;;;;;44.30;96873.00;;;;8217341;28;20658;-75
2023/07/09 12:22:49;;;;;;;6.70;4.22;;;;;45.00;96871.00;;;;8218811;28;20222;-75
2023/07/09 12:26:59;;;;;;;5.80;4.63;;;;;44.90;96860.00;;;;8223704;28;20206;-76
2023/07/09 12:31:03;;;;;;;5.13;4.10;;;;;44.90;96855.00;;;;8213540;28;20681;-78
2023/07/09 12:35:14;;;;;;;8.18;4.80;;;;;44.60;96851.00;;;;8220249;28;20717;-73
2023/07/09 12:39:21;;;;;;;8.10;4.38;;;;;44.00;96851.00;;;;8217536;28;20243;-73
2023/07/09 12:43:31;;;;;;;5.28;4.45;;;;;43.70;96841.00;;;;8195670;28;20266;-73
2023/07/09 12:47:35;;;;;;;10.25;4.78;;;;;43.70;96842.00;;;;8207771;28;20200;-76
2023/07/09 12:51:39;;;;;;;5.82;4.55;;;;;43.90;96843.00;;;;8218294;28;20475;-74
2023/07/09 12:55:50;;;;;;;7.38;4.45;;;;;43.70;96848.00;;;;8217617;28;20245;-74
2023/07/09 12:59:59;;;;;;;4.68;4.28;;;;;43.30;96833.00;;;;8216640;28;20227;-74
2023/07/09 13:04:13;;;;;;;5.50;4.47;;;;;43.10;96836.00;;;;8223009;28;20747;-74
2023/07/09 13:08:19;;;;;;;8.05;4.80;;;;;42.50;96839.00;;;;8225775;28;20290;-76
2023/07/09 13:12:29;;;;;;;8.15;4.68;;;;;42.30;96827.00;;;;8218242;28;20237;-77
2023/07/09 13:16:43;;;;;;;5.85;4.10;;;;;42.30;96824.00;;;;8207979;28;20200;-78
2023/07/09 13:20:48;;;;;;;5.43;4.10;;;;;42.80;96833.00;;;;8214612;28;20279;-78
2023/07/09 13:24:58;;;;;;;4.80;4.18;;;;;43.40;96819.00;;;;8213590;28;20744;-75
2023/07/09 13:29:04;;;;;;;7.75;4.88;;;;;43.70;96824.00;;;;8212293;28;20290;-78
2023/07/09 13:33:11;;;;;;;8.00;4.95;;;;;44.10;96811.00;;;;8216089;28;20677;-75
2023/07/09 13:37:16;;;;;;;6.43;3.75;;;;;44.50;96821.00;;;;8213487;28;20217;-75
2023/07/09 13:41:22;;;;;;;4.80;4.25;;;;;45.10;96824.00;;;;8224957;28;20332;-77
2023/07/09 13:45:30;;;;;;;5.53;4.10;;;;;44.70;96825.00;;;;8219925;28;20621;-78
2023/07/09 13:49:35;;;;;;;11.15;5.60;;;;;45.20;96822.00;;;;8218669;28;20246;-76
2023/07/09 13:53:38;;;;;;;6.30;4.65;;;;;45.40;96811.00;;;;8211917;28;20289;-75
2023/07/09 13:57:41;;;;;;;7.07;4.60;;;;;45.30;96812.00;;;;8216636;28;20208;-77
2023/07/09 14:01:46;;;;;;;10.15;4.20;;;;;45.10;96810.00;;;;8210964;28;20238;-76
2023/07/09 14:05:51;;;;;;;10.50;4.63;;;;;44.90;96804.00;;;;8218321;28;20296;-77
2023/07/09 14:09:54;;;;;;;7.00;4.55;;;;;45.20;96804.00;;;;8214049;28;20285;-76
2023/07/09 14:14:05;;;;;;;5.55;4.38;;;;;45.50;96803.00;;;;8207235;28;20287;-78
2023/07/09 14:18:17;;;;;;;11.30;4.47;;;;;45.60;96797.00;;;;8212703;28;20210;-80
2023/07/09 14:22:33;;;;;;;7.97;4.18;;;;;45.50;96805.00;;;;8217163;28;20242;-75
2023/07/09 14:26:40;;;;;;;4.13;3.72;;;;;45.20;96797.00;;;;8215311;28;20232;-78
2023/07/09 14:30:46;;;;;;;6.55;4.28;;;;;44.80;96791.00;;;;8196640;28;20203;-77
2023/07/09 14:34:50;;;;;;;6.70;4.10;;;;;44.20;96792.00;;;;8219904;28;20222;-77
2023/07/09 14:38:56;;;;;;;4.47;4.07;;;;;44.00;96792.00;;;;8216562;28;20245;-80
2023/07/09 14:43:02;;;;;;;7.50;4.30;;;;;44.20;96784.00;;;;8218057;28;20748;-80
2023/07/09 14:47:14;;;;;;;6.25;4.85;;;;;44.20;96776.00;;;;8210636;28;20242;-77
2023/07/09 14:51:20;;;;;;;5.28;4.25;;;;;44.60;96781.00;;;;8197438;28;20249;-77
2023/07/09 14:55:29;;;;;;;7.90;4.38;;;;;44.90;96773.00;;;;8207925;28;20963;-79
2023/07/09 14:59:35;;;;;;;5.97;4.43;;;;;44.90;96769.00;;;;8207515;28;20241;-81
2023/07/09 15:03:44;;;;;;;7.38;4.28;;;;;45.10;96770.00;;;;8207559;28;20322;-76
2023/07/09 15:07:55;;;;;;;4.45;4.03;;;;;45.00;96772.00;;;;8204354;28;22037;-74
2023/07/09 15:12:00;;;;;;;9.32;4.88;;;;;44.40;96768.00;;;;8203118;28;20293;-74
2023/07/09 15:16:07;;;;;;;8.57;6.55;;;;;44.30;96753.00;;;;8193754;28;20604;-78
2023/07/09 15:20:17;;;;;;;6.57;5.22;;;;;44.70;96751.00;;;;8213062;28;20199;-78
2023/07/09 15:24:24;;;;;;;5.55;4.07;;;;;44.90;96744.00;;;;8211224;28;20345;-76
2023/07/09 15:28:29;;;;;;;6.25;4.18;;;;;44.90;96740.00;;;;8205731;28;20606;-79
2023/07/09 15:32:34;;;;;;;4.65;4.03;;;;;44.90;96734.00;;;;8214427;28;20289;-78
2023/07/09 15:36:43;;;;;;;5.78;4.10;;;;;44.90;96730.00;;;;8219773;28;20211;-76
2023/07/09 15:40:50;;;;;;;7.50;3.67;;;;;44.50;96729.00;;;;8221721;28;20242;-77
2023/07/09 15:44:54;;;;;;;5.15;4.10;;;;;44.30;96715.00;;;;8215851;28;20238;-72
2023/07/09 15:49:01;;;;;;;10.07;7.10;;;;;43.90;96719.00;;;;8209667;28;20199;-74
2023/07/09 15:53:10;;;;;;;12.00;5.75;;;;;43.50;96719.00;;;;8213003;28;20291;-73
2023/07/09 15:57:17;;;;;;;6.60;4.72;;;;;43.60;96714.00;;;;8211861;28;20195;-74
2023/07/09 16:01:43;;;;;;;5.20;4.63;;;;;43.70;96719.00;;;;8204563;28;20245;-73
2023/07/09 16:05:50;;;;;;;5.25;4.25;;;;;43.50;96717.00;;;;8202864;28;20207;-73
2023/07/09 16:09:53;;;;;;;7.97;5.05;;;;;43.00;96708.00;;;;8209521;28;20211;-73
2023/07/09 16:13:59;;;;;;;8.45;4.15;;;;;42.60;96713.00;;;;8214235;28;20294;-73
2023/07/09 16:18:13;;;;;;;9.50;3.88;;;;;42.30;96712.00;;;;8203600;28;20219;-74
2023/07/09 16:22:21;;;;;;;10.63;4.10;;;;;42.40;96711.00;;;;8208823;28;20231;-69
2023/07/09 16:26:24;;;;;;;4.75;4.35;;;;;42.70;96708.00;;;;8207529;28;20208;-71
2023/07/09 16:30:31;;;;;;;7.30;4.75;;;;;42.90;96711.00;;;;8204600;28;20211;-75
2023/07/09 16:34:38;;;;;;;14.68;9.32;;;;;42.90;96707.00;;;;8198246;28;20215;-75
2023/07/09 16:38:43;;;;;;;8.20;5.45;;;;;43.10;96713.00;;;;8218885;28;20262;-78
2023/07/09 16:42:52;;;;;;;9.18;5.13;;;;;43.30;96703.00;;;;8220948;28;20234;-77
2023/07/09 16:46:59;;;;;;;6.38;4.05;;;;;43.20;96703.00;;;;8194452;28;20307;-75
2023/07/09 16:51:03;;;;;;;9.95;4.68;;;;;42.90;96710.00;;;;8193507;28;20283;-75
2023/07/09 16:55:09;;;;;;;8.00;4.15;;;;;42.60;96700.00;;;;8209951;28;20286;-77
2023/07/09 16:59:12;;;;;;;7.68;4.30;;;;;42.50;96702.00;;;;8224875;28;20291;-76
2023/07/09 17:03:15;;;;;;;5.03;4.43;;;;;42.40;96709.00;;;;8217424;28;20922;-77
2023/07/09 17:07:20;;;;;;;5.53;4.63;;;;;42.20;96709.00;;;;8199082;28;20297;-77
2023/07/09 17:11:23;;;;;;;6.95;3.95;;;;;41.90;96711.00;;;;8215339;28;20663;-76
2023/07/09 17:15:30;;;;;;;4.72;4.07;;;;;41.30;96704.00;;;;8214547;28;20273;-77
2023/07/09 17:19:33;;;;;;;7.10;3.90;;;;;41.00;96706.00;;;;8223476;28;20214;-78
2023/07/09 17:23:39;;;;;;;6.93;4.93;;;;;40.60;96709.00;;;;8220779;28;20403;-77
2023/07/09 17:27:46;;;;;;;5.25;4.18;;;;;40.40;96707.00;;;;8199248;28;20295;-76
2023/07/09 17:31:50;;;;;;;7.63;4.78;;;;;40.20;96711.00;;;;8211326;28;20294;-78
2023/07/09 17:35:55;;;;;;;6.15;4.10;;;;;40.10;96711.00;;;;8212979;28;20291;-78
2023/07/09 17:40:02;;;;;;;5.85;4.00;;;;;40.00;96709.00;;;;8222929;28;20677;-77
2023/07/09 17:44:13;;;;;;;6.50;4.20;;;;;39.80;96715.00;;;;8216332;28;20231;-77
2023/07/09 17:48:21;;;;;;;7.22;4.32;;;;;39.80;96719.00;;;;8223336;28;20274;-79
2023/07/09 17:52:25;;;;;;;9.20;4.60;;;;;39.70;96715.00;;;;8223364;28;20238;-75
2023/07/09 17:56:30;;;;;;;7.22;4.40;;;;;39.40;96715.00;;;;8204182;28;20287;-78
2023/07/09 18:00:38;;;;;;;7.38;5.07;;;;;38.90;96712.00;;;;8195975;28;20212;-77
2023/07/09 18:04:44;;;;;;;7.57;4.30;;;;;38.20;96716.00;;;;8213000;28;20327;-76
2023/07/09 18:08:47;;;;;;;7.30;4.22;;;;;37.40;96716.00;;;;8211465;28;20291;-78
2023/07/09 18:12:52;;;;;;;8.13;4.25;;;;;36.50;96717.00;;;;8208302;28;20299;-77
2023/07/09 18:16:59;;;;;;;7.25;4.32;;;;;35.60;96715.00;;;;8218163;28;20742;-78
2023/07/09 18:21:02;;;;;;;5.63;4.55;;;;;34.60;96720.00;;;;8213438;28;20204;-77
2023/07/09 18:25:07;;;;;;;6.85;4.65;;;;;33.80;96721.00;;;;8189757;28;20251;-78
2023/07/09 18:29:24;;;;;;;8.30;4.45;;;;;33.00;96714.00;;;;8212232;28;20259;-76
2023/07/09 18:33:27;;;;;;;6.70;5.03;;;;;32.30;96722.00;;;;8204261;28;20989;-76
2023/07/09 18:37:31;;;;;;;7.57;5.00;;;;;31.70;96715.00;;;;8212478;28;20231;-73
2023/07/09 18:41:34;;;;;;;7.72;5.18;;;;;31.00;96719.00;;;;8196487;28;20219;-74
2023/07/09 18:45:40;;;;;;;6.40;4.63;;;;;30.30;96711.00;;;;8211750;28;20239;-72
2023/07/09 18:49:44;;;;;;;8.95;4.68;;;;;29.80;96718.00;;;;8217525;28;20286;-72
2023/07/09 18:53:54;;;;;;;6.95;4.78;;;;;29.30;96718.00;;;;8221098;28;20630;-72
2023/07/09 18:57:58;;;;;;;8.43;4.35;;;;;28.90;96713.00;;;;8216200;28;20204;-72
2023/07/09 19:02:13;;;;;;;6.03;5.00;;;;;28.50;96711.00;;;;8217930;28;20318;-72
2023/07/09 19:06:16;;;;;;;6.82;4.90;;;;;28.10;96714.00;;;;8219518;28;20366;-72
2023/07/09 19:10:22;;;;;;;5.95;4.75;;;;;27.70;96722.00;;;;8220038;28;20751;-72
2023/07/09 19:14:25;;;;;;;8.18;4.55;;;;;27.40;96720.00;;;;8218868;28;20773;-72
2023/07/09 19:18:34;;;;;;;6.50;4.95;;;;;27.10;96715.00;;;;8213096;28;20206;-72
2023/07/09 19:22:42;;;;;;;7.60;5.32;;;;;26.90;96713.00;;;;8204512;28;20196;-72
2023/07/09 19:26:45;;;;;;;10.05;5.68;;;;;26.50;96718.00;;;;8210736;28;20295;-71
2023/07/09 19:30:49;;;;;;;9.18;5.65;;;;;26.30;96715.00;;;;8210472;28;20565;-71
2023/07/09 19:34:55;;;;;;;8.18;5.00;;;;;26.00;96712.00;;;;8212095;28;20247;-71
2023/07/09 19:38:59;;;;;;;7.70;5.32;;;;;25.80;96715.00;;;;8220670;28;20307;-70
2023/07/09 19:43:02;;;;;;;7.75;5.13;;;;;25.50;96714.00;;;;8217876;28;20317;-71
2023/07/09 19:47:17;;;;;;;9.15;5.60;;;;;25.20;96707.00;;;;8216112;28;20203;-71
2023/07/09 19:51:25;;;;;;;7.65;5.10;;;;;25.00;96711.00;;;;8218114;28;20211;-70
2023/07/09 19:55:34;;;;;;;8.52;5.13;;;;;24.80;96707.00;;;;8218237;28;20696;-71
2023/07/09 19:59:37;;;;;;;10.52;5.90;;;;;24.60;96708.00;;;;8215694;28;20212;-70
2023/07/09 20:03:41;;;;;;;8.75;5.57;;;;;24.40;96712.00;;;;8198008;28;20270;-71
2023/07/09 20:07:48;;;;;;;8.43;5.43;;;;;24.30;96708.00;;;;8216769;28;20331;-72
2023/07/09 20:11:52;;;;;;;6.95;5.07;;;;;24.10;96714.00;;;;8223907;28;20214;-72
2023/07/09 20:15:55;;;;;;;11.02;5.60;;;;;24.00;96708.00;;;;8224005;28;20295;-72
2023/07/09 20:20:00;;;;;;;14.52;6.40;;;;;23.90;96702.00;;;;8221913;28;20786;-72
2023/07/09 20:24:17;;;;;;;9.63;4.97;;;;;23.80;96698.00;;;;8223579;28;20224;-72
2023/07/09 20:28:22;;;;;;;11.13;5.15;;;;;23.70;96695.00;;;;8223727;28;20676;-72
2023/07/09 20:32:26;;;;;;;9.88;6.07;;;;;23.50;96696.00;;;;8221028;28;20216;-72
2023/07/09 20:36:31;;;;;;;11.18;5.65;;;;;23.30;96692.00;;;;8214242;28;20215;-72
2023/07/09 20:40:36;;;;;;;10.82;5.43;;;;;23.20;96703.00;;;;8223581;28;20242;-73